• Join FlightAware (Why Join?)
  • Login
  • US Flag 
07:41PM EDT


 

Airport Tracker/Info


-or-


 

Live Flight TrackerFlight Track Log ✈ SWA4466 ✈ 27-Sep-2013 ✈ KMDW - KBDL

Flight Track Log - Related Links

Times and Time Zones

All times are in EDT time to prevent confusion due to time zone crossing. See the SWA4466 flight status page for this flight to view local times or setup timezone preferences in your user account.

Time Position Orientation Groundspeed Altitude Reporting Facility
EDT Latitude Longitude Course Direction KTS MPH feet Rate Location/Type
02:49PM 41.8040 -87.7080 71° East 162 186 2,500  Level FlightAware
02:49PM 41.8060 -87.6780 85° East 210 242 2,900 1,380 Climbing FlightAware
02:50PM 41.8080 -87.6510 84° East 224 258 3,600 2,460 Climbing FlightAware
02:50PM 41.8110 -87.6200 83° East 235 270 4,700 2,400 Climbing FlightAware
02:50PM 41.8130 -87.5880 85° East 263 303 5,300 2,520 Climbing FlightAware
02:51PM 41.8140 -87.5560 88° East 267 307 6,400 3,120 Climbing FlightAware
02:51PM 41.8110 -87.5200 96° East 275 316 7,500 3,120 Climbing FlightAware
02:51PM 41.8070 -87.4860 99° East 280 322 8,600 3,240 Climbing FlightAware
02:52PM 41.8030 -87.4430 97° East 289 333 9,900 3,060 Climbing FlightAware
02:52PM 41.7960 -87.3810 99° East 295 339 11,600 2,700 Climbing FlightAware
02:53PM 41.7900 -87.3220 98° East 308 354 12,900 2,460 Climbing FlightAware
02:54PM 41.7820 -87.2490 98° East 319 367 14,600 2,820 Climbing FlightAware
02:54PM 41.7750 -87.1820 98° East 316 364 16,300 3,120 Climbing FlightAware
02:55PM 41.7680 -87.1150 98° East 304 350 18,200 2,040 Climbing FlightAware
02:55PM 41.7620 -87.0480 97° East 341 392 18,700 720 Climbing FlightAware
02:56PM 41.7630 -86.9630 89° East 384 442 19,100 840 Climbing FlightAware
02:56PM 41.7640 -86.8880 89° East 407 468 19,700 1,620 Climbing FlightAware
02:57PM 41.7650 -86.7880 89° East 419 482 21,000 2,040 Climbing FlightAware
02:58PM 41.7660 -86.7060 89° East 424 488 22,100 1,980 Climbing FlightAware
02:58PM 41.7670 -86.6080 89° East 430 495 23,300 1,860 Climbing FlightAware
02:59PM 41.7710 -86.5140 87° East 435 501 24,400 1,800 Climbing FlightAware
02:59PM 41.7840 -86.4220 79° East 441 507 25,400 1,620 Climbing FlightAware
03:00PM 41.7970 -86.3340 79° East 448 516 26,300 1,500 Climbing FlightAware
03:01PM 41.8150 -86.2120 79° East 456 525 27,400 1,320 Climbing FlightAware
03:01PM 41.8290 -86.1110 79° East 464 534 28,100 1,140 Climbing FlightAware
03:02PM 41.8430 -86.0100 79° East 472 543 28,800 1,200 Climbing FlightAware
03:02PM 41.8570 -85.9150 79° East 477 549 29,500 1,320 Climbing FlightAware
03:03PM 41.8720 -85.8070 79° East 479 551 30,400 1,620 Climbing FlightAware
03:04PM 41.8840 -85.7180 80° East 470 541 31,400 1,800 Climbing FlightAware
03:04PM 41.9020 -85.5910 79° East 464 534 32,700 1,560 Climbing FlightAware
03:05PM 41.9160 -85.4920 79° East 464 534 33,500 1,200 Climbing FlightAware
03:05PM 41.9300 -85.3870 80° East 464 534 34,200 1,200 Climbing FlightAware
03:06PM 41.9420 -85.2950 80° East 461 531 34,900 660 Climbing FlightAware
03:07PM 41.9510 -85.1920 83° East 471 542 35,000 60 Climbing FlightAware
03:07PM 41.9510 -85.0500 90° East 470 541 35,000  Level FlightAware
03:08PM 41.9510 -84.9530 90° East 470 541 35,000  Level FlightAware
03:09PM 41.9500 -84.8450 91° East 469 540 35,000  Level FlightAware
03:09PM 41.9490 -84.7540 91° East 468 539 35,000  Level FlightAware
03:10PM 41.9490 -84.6510 90° East 467 537 35,000  Level FlightAware
03:10PM 41.9480 -84.5510 91° East 467 537 35,000  Level FlightAware
03:11PM 41.9470 -84.5110 92° East 467 537 35,000  Level FlightAware
03:11PM 41.9460 -84.3520 90° East 467 537 35,000  Level FlightAware
03:12PM 41.9450 -84.2460 91° East 467 537 35,000  Level FlightAware
03:13PM 41.9440 -84.1570 91° East 467 537 35,000  Level FlightAware
03:13PM 41.9430 -84.0580 91° East 467 537 35,000  Level FlightAware
03:14PM 41.9420 -83.9650 91° East 467 537 35,000  Level FlightAware
03:14PM 41.9400 -83.8620 91° East 466 536 35,000  Level FlightAware
03:15PM 41.9390 -83.7560 91° East 466 536 35,000  Level FlightAware
03:15PM 41.9370 -83.6600 92° East 466 536 35,000  Level FlightAware
03:16PM 41.9360 -83.5430 91° East 466 536 35,000  Level FlightAware
03:17PM 41.9340 -83.4400 91° East 465 535 35,000  Level FlightAware
03:17PM 41.9340 -83.3540 90° East 464 534 35,000  Level FlightAware
03:18PM 41.9340 -83.2420 90° East 464 534 35,000  Level FlightAware
03:18PM 41.9330 -83.1410 91° East 464 534 35,000  Level FlightAware
03:19PM 41.9330 -83.0470 90° East 462 532 35,000  Level FlightAware
03:20PM 41.9320 -82.9460 91° East 459 528 35,000  Level FlightAware
03:20PM 41.9310 -82.8430 91° East 456 525 35,000  Level FlightAware
03:21PM 41.9320 -82.7190 89° East 447 514 35,000  Level FlightAware
03:21PM 41.9400 -82.6480 81° East 441 507 35,000  Level FlightAware
03:22PM 41.9550 -82.5280 80° East 440 506 35,000  Level FlightAware
03:23PM 41.9670 -82.4230 81° East 440 506 35,000  Level FlightAware
03:23PM 41.9790 -82.3310 80° East 441 507 35,000  Level FlightAware
03:24PM 41.9890 -82.2450 81° East 442 509 35,000  Level FlightAware
03:25PM 42.0040 -82.1120 81° East 442 509 35,000  Level FlightAware
03:25PM 42.0170 -82.0070 81° East 442 509 35,000  Level FlightAware
03:26PM 42.0280 -81.9070 82° East 442 509 35,000  Level FlightAware
03:26PM 42.0390 -81.8160 81° East 441 507 35,000  Level FlightAware
03:27PM 42.0500 -81.7130 82° East 441 507 35,000  Level FlightAware
03:28PM 42.0590 -81.6330 81° East 440 506 35,000  Level FlightAware
03:28PM 42.0700 -81.5410 81° East 440 506 35,000  Level FlightAware
03:29PM 42.0820 -81.4320 82° East 440 506 35,000  Level FlightAware
03:29PM 42.0920 -81.3400 82° East 440 506 35,000  Level FlightAware
03:30PM 42.1020 -81.2510 81° East 440 506 35,000  Level FlightAware
03:31PM 42.1120 -81.1550 82° East 440 506 35,000  Level FlightAware
03:31PM 42.1230 -81.0580 81° East 440 506 35,000  Level FlightAware
03:32PM 42.1340 -80.9560 82° East 441 507 35,000  Level FlightAware
03:32PM 42.1430 -80.8640 82° East 442 509 35,000  Level FlightAware
03:33PM 42.1530 -80.7760 81° East 443 510 35,000  Level FlightAware
03:33PM 42.1630 -80.6770 82° East 445 512 35,000  Level FlightAware
03:34PM 42.1740 -80.5740 82° East 446 513 35,000  Level FlightAware
03:35PM 42.1830 -80.4860 82° East 447 514 35,000  Level FlightAware
03:35PM 42.1940 -80.3790 82° East 448 516 35,000  Level FlightAware
03:36PM 42.2020 -80.2950 83° East 447 514 35,000  Level FlightAware
03:36PM 42.2120 -80.1920 82° East 446 513 35,000  Level FlightAware
03:37PM 42.2220 -80.0910 82° East 446 513 35,000  Level FlightAware
03:38PM 42.2310 -80.0010 82° East 444 511 35,000  Level FlightAware
03:38PM 42.2410 -79.9030 82° East 441 507 35,000  Level FlightAware
03:39PM 42.2500 -79.8080 83° East 441 507 35,000  Level FlightAware
03:39PM 42.2590 -79.7140 83° East 440 506 35,000  Level FlightAware
03:40PM 42.2680 -79.6180 83° East 439 505 35,000  Level FlightAware
03:40PM 42.2770 -79.5260 82° East 438 504 35,000  Level FlightAware
03:41PM 42.2860 -79.4310 83° East 437 503 35,000  Level FlightAware
03:42PM 42.2940 -79.3390 83° East 436 502 35,000  Level FlightAware
03:42PM 42.3030 -79.2330 83° East 437 503 35,000  Level FlightAware
03:43PM 42.3080 -79.1450 86° East 437 503 35,000  Level FlightAware
03:43PM 42.3120 -79.0550 87° East 437 503 35,000  Level FlightAware
03:44PM 42.3180 -78.9560 85° East 437 503 35,000  Level FlightAware
03:45PM 42.3240 -78.8570 85° East 436 502 35,000  Level FlightAware
03:45PM 42.3290 -78.7650 86° East 437 503 35,000  Level FlightAware
03:46PM 42.3340 -78.6630 86° East 437 503 35,000  Level FlightAware
03:46PM 42.3390 -78.5750 86° East 437 503 35,000  Level FlightAware
03:47PM 42.3440 -78.4830 86° East 437 503 35,000  Level FlightAware
03:48PM 42.3490 -78.3790 86° East 437 503 35,000  Level FlightAware
03:48PM 42.3540 -78.2810 86° East 438 504 35,000  Level FlightAware
03:49PM 42.3580 -78.1940 86° East 437 503 35,000  Level FlightAware
03:49PM 42.3630 -78.0920 86° East 437 503 35,000  Level FlightAware
03:50PM 42.3670 -78.0140 86° East 437 503 35,000  Level FlightAware
03:50PM 42.3720 -77.9130 86° East 436 502 35,000  Level FlightAware
03:51PM 42.3760 -77.8180 87° East 436 502 35,000  Level FlightAware
03:52PM 42.3810 -77.7200 86° East 435 501 35,000  Level FlightAware
03:52PM 42.3850 -77.6190 87° East 434 499 35,000  Level FlightAware
03:53PM 42.3900 -77.5250 86° East 434 499 35,000  Level FlightAware
03:53PM 42.3940 -77.4290 87° East 434 499 35,000  Level FlightAware
03:54PM 42.3970 -77.3430 87° East 434 499 35,000  Level FlightAware
03:54PM 42.4010 -77.2430 87° East 434 499 35,000  Level FlightAware
03:55PM 42.4050 -77.1470 87° East 433 498 35,000  Level FlightAware
03:56PM 42.4090 -77.0510 87° East 432 497 35,000  Level FlightAware
03:56PM 42.4130 -76.9610 87° East 432 497 35,000  Level FlightAware
03:57PM 42.4160 -76.8620 88° East 431 496 35,000  Level FlightAware
03:57PM 42.4200 -76.7820 86° East 430 495 35,000  Level FlightAware
03:58PM 42.4230 -76.6800 88° East 428 493 35,000  Level FlightAware
03:59PM 42.4270 -76.5820 87° East 427 491 35,000  Level FlightAware
03:59PM 42.4300 -76.4930 87° East 425 489 35,000  Level FlightAware
04:00PM 42.4330 -76.4020 87° East 423 487 35,000  Level FlightAware
04:00PM 42.4360 -76.3040 88° East 421 484 35,000  Level FlightAware
04:01PM 42.4390 -76.2140 87° East 421 484 35,000 -300 Level FlightAware
04:01PM 42.4420 -76.1250 87° East 422 486 34,700 -780 Descending FlightAware
04:02PM 42.4460 -76.0220 87° East 429 494 34,100 -960 Descending FlightAware
04:03PM 42.4480 -75.9360 88° East 435 501 33,600 -1,020 Descending FlightAware
04:03PM 42.4510 -75.8410 88° East 439 505 33,000 -1,080 Descending FlightAware
04:04PM 42.4530 -75.7440 88° East 441 507 32,400 -1,020 Descending FlightAware
04:04PM 42.4560 -75.6510 87° East 440 506 31,900 -960 Descending FlightAware
04:05PM 42.4580 -75.5640 88° East 441 507 31,400 -1,020 Descending FlightAware
04:06PM 42.4610 -75.4540 88° East 434 499 30,700 -1,080 Descending FlightAware
04:06PM 42.4630 -75.3620 88° East 429 494 30,100 -1,020 Descending FlightAware
04:07PM 42.4650 -75.2770 88° East 423 487 29,600 -1,080 Descending FlightAware
04:07PM 42.4680 -75.1780 88° East 420 483 28,900 -1,020 Descending FlightAware
04:08PM 42.4700 -75.0900 88° East 413 475 28,400 -1,320 Descending FlightAware
04:08PM 42.4710 -75.0060 89° East 403 464 27,500 -1,920 Descending FlightAware
04:09PM 42.4730 -74.9160 88° East 396 456 26,200 -2,040 Descending FlightAware
04:10PM 42.4750 -74.8310 88° East 389 448 25,100 -1,980 Descending FlightAware
04:10PM 42.4760 -74.7470 89° East 382 440 23,900 -1,620 Descending FlightAware
04:11PM 42.4780 -74.6690 88° East 374 430 23,000 -1,200 Descending FlightAware
04:11PM 42.4790 -74.5680 89° East 380 437 22,400 -1,020 Descending FlightAware
04:12PM 42.4810 -74.4910 88° East 380 437 21,900 -1,020 Descending FlightAware
04:13PM 42.4830 -74.3870 88° East 377 434 21,200 -1,080 Descending FlightAware
04:13PM 42.4840 -74.3060 89° East 375 432 20,600 -1,080 Descending FlightAware
04:14PM 42.4850 -74.2270 89° East 373 429 20,000 -1,020 Descending FlightAware
04:14PM 42.4860 -74.1520 89° East 370 426 19,500 -960 Descending FlightAware
04:15PM 42.4870 -74.0640 89° East 364 419 18,900 -1,020 Descending FlightAware
04:16PM 42.4880 -73.9890 89° East 362 417 18,300 -1,020 Descending FlightAware
04:16PM 42.4890 -73.9130 89° East 360 414 17,800 -1,080 Descending FlightAware
04:17PM 42.4840 -73.8570 97° East 364 419 17,300 -1,140 Descending FlightAware
04:17PM 42.4630 -73.7780 110° East 364 419 16,700 -960 Descending FlightAware
04:18PM 42.4440 -73.7140 112° Southeast 360 414 16,200 -960 Descending FlightAware
04:18PM 42.4210 -73.6340 111° Southeast 357 411 15,600 -960 Descending FlightAware
04:19PM 42.4010 -73.5650 111° Southeast 355 409 15,100 -960 Descending FlightAware
04:19PM 42.3800 -73.4910 111° Southeast 350 403 14,500 -1,080 Descending FlightAware
04:20PM 42.3610 -73.4260 112° Southeast 345 397 13,900 -1,620 Descending FlightAware
04:21PM 42.3360 -73.3500 114° Southeast 353 406 12,600 -2,100 Descending FlightAware
04:21PM 42.3300 -73.3430 139° Southeast 355 409 12,400 -1,920 Descending FlightAware
04:21PM 42.3100 -73.3270 149° Southeast 356 410 12,000 -1,080 Descending FlightAware
04:22PM 42.2570 -73.2980 158° South 333 383 11,500 -720 Descending FlightAware
04:22PM 42.2100 -73.2720 158° South 307 353 11,200 -900 Descending FlightAware
04:23PM 42.1650 -73.2460 157° South 298 343 10,500 -1,320 Descending FlightAware
04:23PM 42.1300 -73.2160 148° Southeast 291 335 9,800 -1,500 Descending FlightAware
04:24PM 42.1080 -73.1970 147° Southeast 287 330 9,300 -1,500 Descending FlightAware
04:24PM 42.0870 -73.1780 146° Southeast 285 328 8,800 -1,440 Descending FlightAware
04:24PM 42.0630 -73.1570 147° Southeast 285 328 8,300 -1,500 Descending FlightAware
04:25PM 42.0460 -73.1410 145° Southeast 284 327 7,900 -1,380 Descending FlightAware
04:25PM 42.0280 -73.1240 145° Southeast 280 322 7,600 -780 Descending FlightAware
04:25PM 42.0140 -73.1070 138° Southeast 261 300 7,500 -900 Descending FlightAware
04:25PM 41.9930 -73.0810 137° Southeast 246 283 7,000 -600 Descending FlightAware
04:26PM 41.9760 -73.0590 136° Southeast 246 283 7,000 -960 Level FlightAware
04:26PM 41.9510 -73.0300 139° Southeast 215 247 6,200 -1,320 Descending FlightAware
04:27PM 41.9300 -73.0040 137° Southeast 196 226 5,800 -600 Descending FlightAware
04:27PM 41.9090 -72.9780 137° Southeast 193 222 5,600 -1,260 Descending FlightAware
04:28PM 41.8886 -72.9589 137° Southeast 188 216 4,400 -1,620 Descending Boston Center
04:29PM 41.8761 -72.9364 127° Southeast 197 227 3,800 -1,320 Descending Boston Center
04:29PM 41.8681 -72.9028 108° East 180 207 3,200 -1,200 Descending Boston Center
04:30PM 41.8703 -72.8611 86° East 166 191 2,600 -840 Descending Boston Center
04:30PM 41.8703 -72.8331 90° East 157 181 2,300 -600 Descending Boston Center
04:31PM 41.8725 -72.7997 85° East 161 185 2,000 -540 Descending Boston Center
04:31PM 41.8725 -72.7747 90° East 156 180 1,800 -600 Descending Boston Center
04:32PM 41.8914 -72.7553 37° Northeast 154 177 1,400 -780 Descending Boston Center
04:32PM 41.9019 -72.7414 44° Northeast 144 166 1,100 -900 Descending Boston Center
04:33PM 41.9186 -72.7164 48° Northeast 140 161 600 -420 Descending Boston Center
04:34PM 41.9417 -72.6689 57° Northeast 140 161 400 8,700 Descending Boston Center
04:35PM 41.9625 -72.6272 56° Northeast 140 161 18,000 18,180 Climbing Boston Center
04:37PM 41.9333 -72.6833 135° Southeast  Level FlightAware Approximate
04:44PM 41.9392 -72.6834 135° Southeast  Level Estimated
04:45PM 41.9333 -72.6833 135° Southeast  Level FlightAware Approximate
04:46PM 41.9392 -72.6834 135° Southeast  Level Estimated